createdAt,value
2022-09-30T00:01:39.935Z,99973.63
2022-09-30T00:04:09.502Z,99976.72
2022-09-30T00:06:37.651Z,99974.31
2022-09-30T00:09:06.906Z,99981.31
2022-09-30T00:11:38.751Z,99976.38
2022-09-30T00:14:08.034Z,99977.13
2022-09-30T00:16:38.870Z,99977.97
2022-09-30T00:19:07.188Z,99976.06
2022-09-30T00:21:35.707Z,99982.09
2022-09-30T00:24:04.829Z,99991.69
2022-09-30T00:26:33.900Z,99985.44
2022-09-30T00:29:03.120Z,99991.19
2022-09-30T00:31:33.926Z,99995.78
2022-09-30T00:34:11.526Z,99990.78
2022-09-30T00:36:43.687Z,99999.94
2022-09-30T00:39:14.793Z,100002.34
2022-09-30T00:41:43.539Z,99999.00
2022-09-30T00:44:46.962Z,100003.75
2022-09-30T00:47:32.227Z,100003.91
2022-09-30T00:50:06.652Z,100004.00
2022-09-30T00:52:36.058Z,100011.88
2022-09-30T00:55:11.214Z,100018.09
2022-09-30T00:57:39.399Z,100020.03
2022-09-30T01:00:09.201Z,100015.81
2022-09-30T01:02:37.651Z,100012.38
2022-09-30T01:05:09.559Z,100012.75
2022-09-30T01:07:37.887Z,100017.34
2022-09-30T01:10:06.667Z,100016.19
2022-09-30T01:12:35.180Z,100016.13
2022-09-30T01:15:05.190Z,100018.69
2022-09-30T01:17:43.545Z,100019.00
2022-09-30T01:20:48.663Z,100006.59
2022-09-30T01:23:42.792Z,100010.69
2022-09-30T01:26:52.530Z,100008.63
2022-09-30T01:29:42.076Z,100007.28
2022-09-30T01:32:19.974Z,100010.66
2022-09-30T01:35:01.237Z,100002.88
2022-09-30T01:37:38.858Z,100003.28
2022-09-30T01:40:13.836Z,100015.59
2022-09-30T01:42:53.270Z,100007.09
2022-09-30T01:45:31.890Z,100011.31
2022-09-30T01:48:04.727Z,100009.34
2022-09-30T01:50:41.433Z,100015.50
2022-09-30T01:53:16.878Z,100007.72
2022-09-30T01:55:52.038Z,100008.44
2022-09-30T01:58:26.879Z,100011.47
2022-09-30T02:01:00.913Z,100025.41
2022-09-30T02:03:36.737Z,100017.63
2022-09-30T02:06:08.773Z,100028.84
2022-09-30T02:08:42.914Z,100025.34
2022-09-30T02:11:16.409Z,100029.25
2022-09-30T02:13:51.263Z,100029.97
2022-09-30T02:16:24.701Z,100037.72
2022-09-30T02:18:57.510Z,100038.84
2022-09-30T02:21:34.038Z,100039.63
2022-09-30T02:24:07.084Z,100046.56
2022-09-30T02:26:40.402Z,100058.53
2022-09-30T02:29:15.218Z,100062.75
2022-09-30T02:31:46.073Z,100063.91
2022-09-30T02:34:20.167Z,100053.84
2022-09-30T02:36:53.754Z,100070.06
2022-09-30T02:39:28.634Z,100062.28
2022-09-30T02:42:03.726Z,100066.91
2022-09-30T02:44:32.971Z,100063.56
2022-09-30T02:47:15.659Z,100069.75
2022-09-30T02:49:51.130Z,100071.44
2022-09-30T02:52:29.051Z,100067.03
2022-09-30T02:55:14.462Z,100071.78
2022-09-30T02:57:56.325Z,100076.44
2022-09-30T03:00:24.600Z,100070.88
2022-09-30T03:02:58.931Z,100081.59
2022-09-30T03:05:28.947Z,100081.19
2022-09-30T03:07:57.677Z,100071.47
2022-09-30T03:10:26.409Z,100076.63
2022-09-30T03:13:11.946Z,100080.16
2022-09-30T03:15:53.183Z,100071.31
2022-09-30T03:18:59.295Z,100075.59
2022-09-30T03:21:43.734Z,100083.84
2022-09-30T03:24:31.994Z,100088.41
2022-09-30T03:27:12.866Z,100089.09
2022-09-30T03:29:51.376Z,100089.84
2022-09-30T03:32:32.571Z,100093.69
2022-09-30T03:35:06.254Z,100092.69
2022-09-30T03:37:45.588Z,100105.81
2022-09-30T03:40:23.053Z,100102.88
2022-09-30T03:42:56.077Z,100102.63
2022-09-30T03:45:31.910Z,100102.22
2022-09-30T03:48:05.940Z,100093.00
2022-09-30T03:50:37.090Z,100087.63
2022-09-30T03:53:12.696Z,100102.69
2022-09-30T03:55:49.295Z,100097.22
2022-09-30T03:58:17.915Z,100105.97
2022-09-30T04:00:50.845Z,100106.84
2022-09-30T04:03:19.753Z,100109.16
2022-09-30T04:05:48.634Z,100114.53
2022-09-30T04:08:18.320Z,100105.91
2022-09-30T04:10:46.626Z,100113.81
2022-09-30T04:13:14.740Z,100108.19
2022-09-30T04:15:42.949Z,100118.41
2022-09-30T04:18:11.052Z,100123.16
2022-09-30T04:20:39.890Z,100121.69
2022-09-30T04:23:07.985Z,100128.50
2022-09-30T04:25:37.472Z,100129.81
2022-09-30T04:28:05.645Z,100138.53
2022-09-30T04:30:33.901Z,100135.81
2022-09-30T04:33:02.157Z,100144.53
2022-09-30T04:35:30.428Z,100143.41
2022-09-30T04:37:58.690Z,100150.16
2022-09-30T04:40:26.917Z,100153.38
2022-09-30T04:42:59.107Z,100161.53
2022-09-30T04:45:27.246Z,100160.47
2022-09-30T04:47:55.360Z,100163.06
2022-09-30T04:50:24.003Z,100166.44
2022-09-30T04:52:52.212Z,100168.25
2022-09-30T04:55:20.261Z,100175.09
2022-09-30T04:57:48.387Z,100175.94
2022-09-30T05:00:18.343Z,100185.81
2022-09-30T05:02:46.419Z,100188.59
2022-09-30T05:05:14.614Z,100188.22
2022-09-30T05:07:42.698Z,100188.91
2022-09-30T05:10:11.659Z,100194.78
2022-09-30T05:12:41.075Z,100191.69
2022-09-30T05:15:10.523Z,100190.97
2022-09-30T05:17:40.027Z,100189.63
2022-09-30T05:20:10.951Z,100187.47
2022-09-30T05:22:39.628Z,100184.47
2022-09-30T05:25:08.461Z,100188.94
2022-09-30T05:27:36.975Z,100190.44
2022-09-30T05:30:06.752Z,100201.03
2022-09-30T05:32:34.873Z,100197.72
2022-09-30T05:35:04.911Z,100194.97
2022-09-30T05:37:33.155Z,100200.44
2022-09-30T05:40:01.282Z,100196.19
2022-09-30T05:42:29.387Z,100194.78
2022-09-30T05:44:57.505Z,100193.63
2022-09-30T05:47:25.614Z,100190.50
2022-09-30T05:49:56.104Z,100187.38
2022-09-30T05:52:25.933Z,100187.38
2022-09-30T05:54:54.327Z,100193.22
2022-09-30T05:57:22.575Z,100188.56
2022-09-30T05:59:51.139Z,100195.06
2022-09-30T06:02:19.414Z,100191.28
2022-09-30T06:04:48.402Z,100199.72
2022-09-30T06:07:16.566Z,100193.28
2022-09-30T06:09:47.454Z,100205.97
2022-09-30T06:12:16.325Z,100206.16
2022-09-30T06:14:44.555Z,100214.22
2022-09-30T06:17:12.616Z,100218.09
2022-09-30T06:19:40.868Z,100218.75
2022-09-30T06:22:09.014Z,100214.66
2022-09-30T06:24:37.309Z,100221.13
2022-09-30T06:27:06.822Z,100219.03
2022-09-30T06:29:34.982Z,100229.25
2022-09-30T06:32:03.696Z,100227.03
2022-09-30T06:34:31.940Z,100231.28
2022-09-30T06:37:00.132Z,100229.56
2022-09-30T06:39:28.265Z,100242.31
2022-09-30T06:41:58.487Z,100251.75
2022-09-30T06:44:28.175Z,100259.91
2022-09-30T06:46:56.571Z,100252.41
2022-09-30T06:49:25.373Z,100255.81
2022-09-30T06:51:53.820Z,100262.16
2022-09-30T06:54:22.089Z,100272.38
2022-09-30T06:56:53.471Z,100274.78
2022-09-30T06:59:21.710Z,100287.25
2022-09-30T07:01:51.462Z,100291.16
2022-09-30T07:04:19.637Z,100293.91
2022-09-30T07:06:47.888Z,100295.06
2022-09-30T07:09:16.505Z,100297.41
2022-09-30T07:11:45.319Z,100290.00
2022-09-30T07:14:14.289Z,100297.81
2022-09-30T07:16:44.780Z,100307.53
2022-09-30T07:19:14.753Z,100306.78
2022-09-30T07:21:42.849Z,100306.75
2022-09-30T07:24:11.736Z,100304.44
2022-09-30T07:26:40.248Z,100312.97
2022-09-30T07:29:08.558Z,100309.50
2022-09-30T07:31:36.809Z,100308.31
2022-09-30T07:34:08.253Z,100305.22
2022-09-30T07:36:39.548Z,100305.19
2022-09-30T07:39:11.109Z,100299.72
2022-09-30T07:41:41.347Z,100304.41
2022-09-30T07:44:14.337Z,100299.72
2022-09-30T07:46:44.300Z,100311.44
2022-09-30T07:49:15.998Z,100315.75
2022-09-30T07:51:46.791Z,100313.00
2022-09-30T07:54:16.514Z,100314.56
2022-09-30T07:59:36.134Z,100301.25
2022-09-30T08:02:04.571Z,100305.91
2022-09-30T08:04:32.875Z,100303.59
2022-09-30T08:07:03.540Z,100310.25
2022-09-30T08:09:32.340Z,100305.88
2022-09-30T08:12:00.550Z,100314.09
2022-09-30T08:14:29.437Z,100312.56
2022-09-30T08:17:00.434Z,100316.81
2022-09-30T08:19:30.571Z,100306.63
2022-09-30T08:22:00.004Z,100312.84
2022-09-30T08:24:29.567Z,100304.63
2022-09-30T08:26:57.728Z,100319.09
2022-09-30T08:32:14.223Z,100322.94
2022-09-30T08:34:42.406Z,100321.00
2022-09-30T08:37:11.282Z,100320.63
2022-09-30T08:39:40.806Z,100317.47
2022-09-30T08:42:36.575Z,100330.72
2022-09-30T08:45:19.360Z,100332.28
2022-09-30T08:47:53.742Z,100342.09
2022-09-30T08:50:29.437Z,100338.56
2022-09-30T08:53:02.913Z,100348.41
2022-09-30T08:55:40.914Z,100352.31
2022-09-30T08:58:22.799Z,100356.22
2022-09-30T09:00:54.145Z,100354.28
2022-09-30T09:03:27.675Z,100362.13
2022-09-30T09:06:03.686Z,100364.03
2022-09-30T09:08:50.665Z,100354.22
2022-09-30T09:11:34.153Z,100351.91
2022-09-30T09:14:06.878Z,100360.84
2022-09-30T09:16:42.067Z,100365.94
2022-09-30T09:19:12.732Z,100366.78
2022-09-30T09:21:52.678Z,100373.06
2022-09-30T09:24:23.568Z,100367.63
2022-09-30T09:26:55.520Z,100369.94
2022-09-30T09:29:41.956Z,100369.94
2022-09-30T09:32:16.126Z,100375.75
2022-09-30T09:34:44.470Z,100369.16
2022-09-30T09:37:21.148Z,100375.03
2022-09-30T09:40:04.789Z,100370.75
2022-09-30T09:42:57.302Z,100369.97
2022-09-30T09:45:32.715Z,100360.59
2022-09-30T09:48:00.981Z,100360.97
2022-09-30T09:50:39.538Z,100359.34
2022-09-30T09:53:22.339Z,100356.63
2022-09-30T09:55:55.410Z,100352.72
2022-09-30T09:58:25.241Z,100355.47
2022-09-30T10:01:30.689Z,100357.72
2022-09-30T10:04:11.150Z,100356.13
2022-09-30T10:06:49.190Z,100359.63
2022-09-30T10:09:29.679Z,100353.69
2022-09-30T10:12:28.987Z,100350.19
2022-09-30T10:15:22.222Z,100356.81
2022-09-30T10:17:58.793Z,100356.53
2022-09-30T10:20:33.178Z,100355.09
2022-09-30T10:23:11.347Z,100362.13
2022-09-30T10:25:39.513Z,100358.97
2022-09-30T10:28:23.934Z,100362.53
2022-09-30T10:30:58.726Z,100356.25
2022-09-30T10:33:31.269Z,100357.09
2022-09-30T10:36:06.948Z,100353.19
2022-09-30T10:38:35.982Z,100357.47
2022-09-30T10:41:06.432Z,100354.75
2022-09-30T10:43:42.130Z,100353.97
2022-09-30T10:46:25.904Z,100352.03
2022-09-30T10:48:56.455Z,100353.22
2022-09-30T10:51:30.817Z,100338.78
2022-09-30T10:53:59.242Z,100351.66
2022-09-30T10:56:45.333Z,100340.31
2022-09-30T10:59:21.523Z,100338.00
2022-09-30T11:01:57.646Z,100345.75
2022-09-30T11:04:36.890Z,100342.63
2022-09-30T11:07:17.191Z,100344.63
2022-09-30T11:09:52.042Z,100347.34
2022-09-30T11:12:27.231Z,100350.47
2022-09-30T11:15:03.735Z,100356.34
2022-09-30T11:17:41.362Z,100348.13
2022-09-30T11:20:19.901Z,100339.53
2022-09-30T11:22:56.559Z,100346.94
2022-09-30T11:25:29.829Z,100345.00
2022-09-30T11:28:15.056Z,100349.66
2022-09-30T11:30:50.046Z,100352.00
2022-09-30T11:33:47.151Z,100353.16
2022-09-30T11:36:24.296Z,100352.00
2022-09-30T11:39:02.573Z,100363.72
2022-09-30T11:41:33.926Z,100361.78
2022-09-30T11:44:15.731Z,100364.53
2022-09-30T11:47:08.573Z,100364.53
2022-09-30T11:49:56.504Z,100364.88
2022-09-30T11:52:34.067Z,100362.13
2022-09-30T11:55:27.330Z,100373.09
2022-09-30T11:58:12.122Z,100365.69
2022-09-30T12:00:55.038Z,100362.19
2022-09-30T12:03:30.008Z,100368.03
2022-09-30T12:06:05.028Z,100358.25
2022-09-30T12:08:37.316Z,100367.25
2022-09-30T12:11:11.763Z,100360.59
2022-09-30T12:13:43.758Z,100369.19
2022-09-30T12:16:19.760Z,100364.09
2022-09-30T12:18:52.690Z,100360.94
2022-09-30T12:21:26.081Z,100362.88
2022-09-30T12:23:58.945Z,100360.88
2022-09-30T12:26:27.431Z,100364.38
2022-09-30T12:29:19.513Z,100374.50
2022-09-30T12:32:06.321Z,100371.00
2022-09-30T12:34:52.247Z,100361.25
2022-09-30T12:37:43.305Z,100375.38
2022-09-30T12:40:41.065Z,100371.47
2022-09-30T12:43:23.900Z,100380.84
2022-09-30T12:46:15.324Z,100378.06
2022-09-30T12:48:48.725Z,100381.59
2022-09-30T12:51:26.818Z,100378.88
2022-09-30T12:54:04.616Z,100369.91
2022-09-30T12:56:34.312Z,100378.94
2022-09-30T12:59:03.906Z,100379.72
2022-09-30T13:01:33.860Z,100375.06
2022-09-30T13:04:19.040Z,100377.78
2022-09-30T13:07:07.425Z,100381.69
2022-09-30T13:09:38.648Z,100386.38
2022-09-30T13:12:42.676Z,100378.97
2022-09-30T13:15:41.990Z,100385.63
2022-09-30T13:18:48.160Z,100396.53
2022-09-30T13:21:27.592Z,100394.59
2022-09-30T13:23:57.029Z,100398.47
2022-09-30T13:26:39.339Z,100401.25
2022-09-30T13:29:35.044Z,100403.19
2022-09-30T13:32:04.714Z,100412.16
2022-09-30T13:34:34.389Z,100406.28
2022-09-30T13:37:04.007Z,100403.94
2022-09-30T13:39:45.764Z,100404.72
2022-09-30T13:42:24.568Z,100394.19
2022-09-30T13:45:03.231Z,100398.06
2022-09-30T13:47:36.517Z,100397.28
2022-09-30T13:50:14.929Z,100400.38
2022-09-30T13:52:46.171Z,100407.38
2022-09-30T13:55:21.574Z,100408.13
2022-09-30T13:58:04.496Z,100401.06
2022-09-30T14:00:51.329Z,100409.66
2022-09-30T14:03:44.935Z,100419.44
2022-09-30T14:06:25.092Z,100415.47
2022-09-30T14:09:18.118Z,100419.72
2022-09-30T14:12:14.359Z,100407.25
2022-09-30T14:15:09.621Z,100416.63
2022-09-30T14:17:57.214Z,100415.47
2022-09-30T14:20:41.487Z,100414.69
2022-09-30T14:23:15.540Z,100403.75
2022-09-30T14:25:53.294Z,100406.09
2022-09-30T14:28:31.885Z,100402.94
2022-09-30T14:31:10.002Z,100399.44
2022-09-30T14:33:39.688Z,100394.72
2022-09-30T14:36:15.885Z,100389.25
2022-09-30T14:38:47.844Z,100409.50
2022-09-30T14:41:20.930Z,100406.00
2022-09-30T14:43:53.006Z,100406.38
2022-09-30T14:46:30.279Z,100400.91
2022-09-30T14:49:04.663Z,100408.63
2022-09-30T14:51:43.356Z,100403.16
2022-09-30T14:54:19.139Z,100404.69
2022-09-30T14:56:48.289Z,100413.63
2022-09-30T14:59:23.798Z,100423.38
2022-09-30T15:01:56.202Z,100414.38
2022-09-30T15:04:30.293Z,100421.75
2022-09-30T15:07:00.428Z,100422.91
2022-09-30T15:09:32.650Z,100422.50
2022-09-30T15:12:06.574Z,100430.28
2022-09-30T15:14:34.903Z,100433.03
2022-09-30T15:17:06.461Z,100426.34
2022-09-30T15:19:36.337Z,100433.34
2022-09-30T15:22:09.513Z,100439.50
2022-09-30T15:24:38.754Z,100439.47
2022-09-30T15:27:14.822Z,100442.19
2022-09-30T15:29:55.633Z,100445.69
2022-09-30T15:32:27.336Z,100455.38
2022-09-30T15:34:58.722Z,100461.97
2022-09-30T15:37:33.630Z,100457.28
2022-09-30T15:40:20.935Z,100465.75
2022-09-30T15:42:56.705Z,100460.16
2022-09-30T15:45:35.367Z,100460.09
2022-09-30T15:48:07.350Z,100459.63
2022-09-30T15:50:42.234Z,100462.34
2022-09-30T15:53:25.404Z,100473.22
2022-09-30T15:55:55.765Z,100481.75
2022-09-30T15:58:37.890Z,100492.09
2022-09-30T16:01:20.179Z,100485.44
2022-09-30T16:03:54.448Z,100494.69
2022-09-30T16:06:27.744Z,100491.03
2022-09-30T16:09:03.178Z,100496.41
2022-09-30T16:11:35.047Z,100499.91
2022-09-30T16:14:05.613Z,100502.06
2022-09-30T16:16:37.009Z,100507.00
2022-09-30T16:19:07.634Z,100505.72
2022-09-30T16:21:45.194Z,100508.03
2022-09-30T16:24:47.677Z,100508.03
2022-09-30T16:27:23.851Z,100503.50
2022-09-30T16:29:51.909Z,100517.44
2022-09-30T16:32:20.384Z,100524.91
2022-09-30T16:34:49.935Z,100524.91
2022-09-30T16:37:21.488Z,100519.03
2022-09-30T16:39:50.302Z,100529.38
2022-09-30T16:42:19.486Z,100533.91
2022-09-30T16:44:47.786Z,100526.16
2022-09-30T16:47:17.438Z,100526.09
2022-09-30T16:49:47.659Z,100520.00
2022-09-30T16:52:18.215Z,100521.22
2022-09-30T16:54:46.412Z,100513.88
2022-09-30T16:57:16.326Z,100528.59
2022-09-30T16:59:45.668Z,100524.56
2022-09-30T17:02:15.986Z,100531.19
2022-09-30T17:04:45.498Z,100536.91
2022-09-30T17:07:15.369Z,100531.72
2022-09-30T17:09:45.541Z,100536.59
2022-09-30T17:12:13.752Z,100538.00
2022-09-30T17:14:43.968Z,100534.78
2022-09-30T17:17:13.639Z,100537.81
2022-09-30T17:19:42.329Z,100543.16
2022-09-30T17:22:10.418Z,100535.22
2022-09-30T17:24:38.921Z,100543.31
2022-09-30T17:27:08.825Z,100553.03
2022-09-30T17:29:41.992Z,100550.63
2022-09-30T17:32:10.699Z,100547.66
2022-09-30T17:34:39.105Z,100549.19
2022-09-30T17:39:40.422Z,100558.66
2022-09-30T17:42:31.519Z,100559.28
2022-09-30T17:44:59.653Z,100555.59
2022-09-30T17:47:27.998Z,100563.03
2022-09-30T17:49:56.320Z,100549.94
2022-09-30T17:52:25.243Z,100559.19
2022-09-30T17:54:54.046Z,100560.50
2022-09-30T17:57:23.508Z,100559.38
2022-09-30T17:59:51.925Z,100562.25
2022-09-30T18:02:21.326Z,100569.81
2022-09-30T18:04:49.519Z,100560.59
2022-09-30T18:07:18.191Z,100567.53
2022-09-30T18:09:46.290Z,100568.81
2022-09-30T18:12:14.445Z,100567.47
2022-09-30T18:14:44.011Z,100565.81
2022-09-30T18:17:12.170Z,100563.75
2022-09-30T18:19:41.570Z,100565.25
2022-09-30T18:22:09.794Z,100573.31
2022-09-30T18:25:04.028Z,100579.97
2022-09-30T18:27:34.111Z,100579.25
2022-09-30T18:30:05.156Z,100583.97
2022-09-30T18:32:33.945Z,100581.88
2022-09-30T18:35:02.080Z,100589.25
2022-09-30T18:37:33.750Z,100575.75
2022-09-30T18:40:02.687Z,100589.97
2022-09-30T18:42:30.739Z,100583.50
2022-09-30T18:44:58.802Z,100588.59
2022-09-30T18:47:28.456Z,100589.75
2022-09-30T18:49:56.654Z,100596.25
2022-09-30T18:52:24.710Z,100593.00
2022-09-30T18:54:52.923Z,100590.88
2022-09-30T18:57:21.026Z,100588.94
2022-09-30T18:59:49.071Z,100584.69
2022-09-30T19:02:20.770Z,100590.09
2022-09-30T19:04:50.356Z,100595.72
2022-09-30T19:07:20.610Z,100596.38
2022-09-30T19:09:48.687Z,100602.22
2022-09-30T19:12:17.742Z,100599.84
2022-09-30T19:14:46.516Z,100592.78
2022-09-30T19:17:15.323Z,100588.84
2022-09-30T19:19:45.825Z,100590.97
2022-09-30T19:22:15.563Z,100589.22
2022-09-30T19:24:44.048Z,100603.19
2022-09-30T19:27:12.314Z,100592.81
2022-09-30T19:29:40.561Z,100602.13
2022-09-30T19:32:12.815Z,100608.53
2022-09-30T19:34:40.902Z,100606.88
2022-09-30T19:37:18.778Z,100616.06
2022-09-30T19:39:53.472Z,100611.44
2022-09-30T19:42:21.520Z,100619.13
2022-09-30T19:44:49.856Z,100611.06
2022-09-30T19:47:18.886Z,100611.25
2022-09-30T19:49:46.940Z,100613.97
2022-09-30T19:52:21.897Z,100623.22
2022-09-30T19:54:51.877Z,100627.59
2022-09-30T19:57:23.879Z,100631.72
2022-09-30T19:59:53.373Z,100653.78
2022-09-30T20:02:22.237Z,100648.63
2022-09-30T20:04:51.748Z,100643.56
2022-09-30T20:07:19.866Z,100642.44
2022-09-30T20:09:47.905Z,100646.84
2022-09-30T20:12:16.010Z,100648.16
2022-09-30T20:15:03.043Z,100646.34
2022-09-30T20:17:31.146Z,100631.38
2022-09-30T20:20:17.250Z,100630.41
2022-09-30T20:22:45.329Z,100630.75
2022-09-30T20:25:14.149Z,100626.28
2022-09-30T20:27:43.055Z,100624.16
2022-09-30T20:30:13.138Z,100631.94
2022-09-30T20:32:41.302Z,100630.28
2022-09-30T20:35:11.397Z,100627.75
2022-09-30T20:37:40.969Z,100628.47
2022-09-30T20:40:10.344Z,100630.66
2022-09-30T20:42:40.134Z,100629.97
2022-09-30T20:45:10.732Z,100636.09
2022-09-30T20:47:40.982Z,100643.72
2022-09-30T20:50:10.380Z,100647.50
2022-09-30T20:52:38.740Z,100651.34
2022-09-30T20:55:08.166Z,100653.78
2022-09-30T20:57:36.617Z,100653.72
2022-09-30T21:00:06.290Z,100657.66
2022-09-30T21:02:35.587Z,100662.16
2022-09-30T21:05:05.673Z,100668.94
2022-09-30T21:07:36.353Z,100675.22
2022-09-30T21:10:04.661Z,100674.63
2022-09-30T21:12:33.020Z,100669.97
2022-09-30T21:15:01.452Z,100679.34
2022-09-30T21:17:29.787Z,100676.00
2022-09-30T21:19:57.967Z,100675.75
2022-09-30T21:22:27.428Z,100669.97
2022-09-30T21:24:55.650Z,100671.88
2022-09-30T21:27:23.921Z,100674.44
2022-09-30T21:29:52.048Z,100663.78
2022-09-30T21:32:20.608Z,100660.72
2022-09-30T21:34:49.233Z,100667.28
2022-09-30T21:37:18.018Z,100672.25
2022-09-30T21:39:48.433Z,100673.75
2022-09-30T21:42:16.600Z,100679.81
2022-09-30T21:44:45.079Z,100680.09
2022-09-30T21:47:13.372Z,100674.25
2022-09-30T21:49:41.503Z,100683.25
2022-09-30T21:52:10.825Z,100682.47
2022-09-30T21:54:40.355Z,100691.13
2022-09-30T21:57:10.116Z,100689.47
2022-09-30T21:59:46.293Z,100692.59
2022-09-30T22:02:16.822Z,100696.78
2022-09-30T22:04:44.974Z,100693.13
2022-09-30T22:07:15.455Z,100697.41
2022-09-30T22:09:44.519Z,100704.59
2022-09-30T22:12:14.155Z,100708.34
2022-09-30T22:14:42.327Z,100716.13
2022-09-30T22:17:10.455Z,100713.19
2022-09-30T22:19:39.203Z,100715.72
2022-09-30T22:22:07.336Z,100717.53
2022-09-30T22:24:36.937Z,100721.28
2022-09-30T22:27:07.761Z,100727.03
2022-09-30T22:29:37.336Z,100715.56
2022-09-30T22:32:05.585Z,100724.38
2022-09-30T22:34:51.398Z,100723.25
2022-09-30T22:37:37.053Z,100725.81
2022-09-30T22:40:05.620Z,100720.44
2022-09-30T22:42:35.747Z,100712.84
2022-09-30T22:45:05.791Z,100720.81
2022-09-30T22:47:34.104Z,100717.50
2022-09-30T22:50:02.287Z,100707.34
2022-09-30T22:52:32.021Z,100702.63
2022-09-30T22:55:00.548Z,100702.88
2022-09-30T22:57:28.643Z,100711.31
2022-09-30T22:59:59.196Z,100713.75
2022-09-30T23:02:28.832Z,100719.81
2022-09-30T23:04:59.074Z,100710.16
2022-09-30T23:07:27.195Z,100720.69
2022-09-30T23:09:55.626Z,100721.91
2022-09-30T23:12:23.906Z,100730.59
2022-09-30T23:14:53.875Z,100737.69
2022-09-30T23:17:22.226Z,100732.03
2022-09-30T23:19:51.808Z,100743.91
2022-09-30T23:22:20.061Z,100741.34
2022-09-30T23:24:48.340Z,100736.47
2022-09-30T23:27:16.541Z,100729.22
2022-09-30T23:29:44.619Z,100732.06
2022-09-30T23:32:12.788Z,100721.06
2022-09-30T23:34:40.864Z,100727.13
2022-09-30T23:37:10.388Z,100735.22
2022-09-30T23:39:38.455Z,100734.69
2022-09-30T23:42:06.615Z,100742.38
2022-09-30T23:44:34.736Z,100744.75
2022-09-30T23:47:21.581Z,100743.31
2022-09-30T23:49:50.548Z,100739.47
2022-09-30T23:52:20.002Z,100747.06
2022-09-30T23:54:48.127Z,100746.63
2022-09-30T23:57:16.368Z,100751.88
2022-09-30T23:59:44.436Z,100748.13
